EST,Max TemperatureF,Mean TemperatureF,Min TemperatureF,Max Dew PointF,MeanDew PointF,Min DewpointF,Max Humidity, Mean Humidity, Min Humidity, Max Sea Level PressureIn, Mean Sea Level PressureIn, Min Sea Level PressureIn, Max VisibilityMiles, Mean VisibilityMiles, Min VisibilityMiles, Max Wind SpeedMPH, Mean Wind SpeedMPH, Max Gust SpeedMPH,PrecipitationIn, CloudCover, Events, WindDirDegrees
2013-2-1,32,22,12,28,11,1,100,73,45,30.43,30.20,29.88,10,6,0,23,9,32,0.09,4,Fog-Snow,278
2013-2-2,30,20,10,30,19,5,96,75,54,30.39,30.15,30.00,10,4,0,13,4,16,0.14,7,Fog-Snow,196
2013-2-3,31,28,25,25,22,17,100,82,63,30.16,30.01,29.91,10,8,1,17,8,25,T,8,Snow,246
2013-2-4,41,30,18,36,23,15,92,63,34,30.15,30.01,29.87,10,9,4,15,4,23,0.06,6,Rain,206
2013-2-5,60,50,39,41,37,32,100,77,54,30.01,29.89,29.85,10,6,1,13,4,17,0.04,8,Rain,242
2013-2-6,46,39,32,33,29,26,82,68,53,30.27,30.19,30.03,10,9,7,12,4,16,0.00,5,,356
2013-2-7,62,47,32,35,30,27,92,61,29,30.23,30.09,29.90,10,8,7,15,5,23,0.00,2,,116
2013-2-8,49,42,34,45,33,24,93,75,56,30.29,30.03,29.81,10,10,7,17,8,25,0.08,7,Rain,281
2013-2-9,43,35,26,25,18,14,69,50,30,30.43,30.36,30.28,10,10,10,13,4,20,0.00,3,,37
2013-2-10,60,44,27,41,27,17,82,51,19,30.26,30.12,29.90,10,10,6,20,4,29,0.13,5,Rain,130
2013-2-11,61,52,42,49,34,22,83,54,25,30.07,29.91,29.86,10,10,10,29,11,41,T,3,,232
2013-2-12,53,43,33,26,24,20,75,53,30,30.16,30.06,29.92,10,10,7,13,4,20,0.00,0,,243
2013-2-13,42,37,32,34,29,25,96,76,55,29.95,29.82,29.70,10,8,1,14,4,21,0.06,7,Rain-Snow,298
2013-2-14,53,42,30,34,31,28,92,68,44,30.00,29.96,29.90,10,9,7,18,8,26,0.00,3,,200
2013-2-15,45,38,31,36,32,26,100,77,53,30.12,30.06,29.97,10,6,1,13,3,17,0.16,7,Rain-Snow,262
2013-2-16,34,28,22,27,19,10,88,66,43,30.12,30.06,29.99,10,9,2,15,6,24,T,5,Snow,312
2013-2-17,31,25,18,9,6,3,62,47,31,30.29,30.21,30.11,10,10,10,13,6,20,0.00,5,,291
2013-2-18,59,37,15,30,20,9,80,58,35,30.29,30.13,29.83,10,10,10,16,7,23,0.00,0,,143
2013-2-19,51,40,29,37,28,15,70,53,35,30.10,29.89,29.78,10,10,10,25,14,37,0.02,7,Rain,235
2013-2-20,35,29,22,14,12,10,65,52,38,30.31,30.22,30.12,10,10,10,15,8,21,T,5,,290
2013-2-21,37,27,16,18,15,10,88,66,44,30.38,30.28,30.19,10,10,10,13,5,17,T,2,,42
2013-2-22,63,47,30,47,35,21,96,71,46,30.15,30.00,29.92,10,7,3,18,5,25,0.21,7,Rain,87
2013-2-23,51,44,36,39,35,27,89,68,46,29.97,29.92,29.88,10,9,6,12,4,37,0.00,5,,280
2013-2-24,48,38,27,27,24,20,92,65,37,30.17,30.07,29.93,10,9,6,14,5,18,0.00,0,,329
2013-2-25,48,36,24,22,20,18,81,58,34,30.19,30.10,29.93,10,10,9,14,7,30,0.00,0,,60
2013-2-26,53,45,37,45,37,21,82,65,48,29.93,29.61,29.44,10,9,2,21,8,29,0.66,7,Rain,115
2013-2-27,44,39,34,37,34,30,85,78,70,29.79,29.70,29.58,10,9,4,16,9,26,0.06,8,Rain-Snow,230
2013-2-28,35,34,33,33,30,26,92,84,75,29.93,29.80,29.72,10,6,1,17,8,26,0.05,8,Snow,243